createdAt,value
2022-08-03T00:00:32.611Z,101102.63
2022-08-03T00:03:00.426Z,101098.88
2022-08-03T00:05:28.219Z,101096.16
2022-08-03T00:07:55.961Z,101100.59
2022-08-03T00:10:23.989Z,101098.72
2022-08-03T00:12:51.735Z,101102.94
2022-08-03T00:15:20.484Z,101102.94
2022-08-03T00:17:53.620Z,101098.31
2022-08-03T00:20:22.605Z,101095.59
2022-08-03T00:22:50.554Z,101099.00
2022-08-03T00:25:18.390Z,101098.16
2022-08-03T00:27:48.351Z,101100.03
2022-08-03T00:30:18.273Z,101101.53
2022-08-03T00:32:45.916Z,101099.84
2022-08-03T00:35:21.284Z,101104.44
2022-08-03T00:38:01.803Z,101100.69
2022-08-03T00:40:29.734Z,101097.13
2022-08-03T00:42:59.767Z,101105.09
2022-08-03T00:45:31.132Z,101105.09
2022-08-03T00:47:59.733Z,101103.25
2022-08-03T00:50:29.348Z,101106.81
2022-08-03T00:52:58.962Z,101105.09
2022-08-03T00:55:27.059Z,101092.38
2022-08-03T00:57:55.651Z,101096.78
2022-08-03T01:00:26.737Z,101098.66
2022-08-03T01:02:54.853Z,101101.38
2022-08-03T01:05:22.779Z,101094.88
2022-08-03T01:08:13.514Z,101090.47
2022-08-03T01:11:12.165Z,101094.88
2022-08-03T01:14:18.781Z,101096.56
2022-08-03T01:17:02.496Z,101092.16
2022-08-03T01:20:02.434Z,101096.56
2022-08-03T01:22:33.382Z,101084.00
2022-08-03T01:25:14.005Z,101093.00
2022-08-03T01:28:00.164Z,101085.69
2022-08-03T01:30:33.799Z,101083.16
2022-08-03T01:33:06.737Z,101091.13
2022-08-03T01:35:42.761Z,101091.13
2022-08-03T01:38:15.500Z,101086.53
2022-08-03T01:40:45.014Z,101080.25
2022-08-03T01:44:27.004Z,101090.09
2022-08-03T01:46:07.923Z,101082.97
2022-08-03T01:48:39.515Z,101080.25
2022-08-03T01:51:09.306Z,101077.53
2022-08-03T01:53:42.916Z,101077.53
2022-08-03T01:56:12.252Z,101083.81
2022-08-03T01:58:42.475Z,101078.38
2022-08-03T02:01:12.219Z,101079.22
2022-08-03T02:04:00.407Z,101077.38
2022-08-03T02:06:59.797Z,101079.22
2022-08-03T02:09:23.051Z,101082.97
2022-08-03T02:11:53.723Z,101089.09
2022-08-03T02:14:24.103Z,101082.63
2022-08-03T02:16:53.066Z,101083.66
2022-08-03T02:19:21.401Z,101083.44
2022-08-03T02:21:56.695Z,101081.56
2022-08-03T02:24:31.031Z,101088.06
2022-08-03T02:27:00.079Z,101080.72
2022-08-03T02:29:39.368Z,101085.34
2022-08-03T02:32:17.634Z,101079.88
2022-08-03T02:34:49.414Z,101083.44
2022-08-03T02:37:20.280Z,101083.66
2022-08-03T02:39:49.486Z,101088.91
2022-08-03T02:42:21.826Z,101083.66
2022-08-03T02:44:51.750Z,101084.50
2022-08-03T02:47:21.681Z,101083.66
2022-08-03T02:49:52.278Z,101081.94
2022-08-03T02:52:23.508Z,101082.81
2022-08-03T02:55:00.266Z,101081.94
2022-08-03T02:57:30.663Z,101082.97
2022-08-03T02:59:59.873Z,101083.81
2022-08-03T03:02:28.926Z,101081.28
2022-08-03T03:05:52.375Z,101074.81
2022-08-03T03:07:52.110Z,101087.38
2022-08-03T03:10:25.600Z,101082.31
2022-08-03T03:12:56.736Z,101078.56
2022-08-03T03:15:37.100Z,101078.56
2022-08-03T03:18:05.944Z,101082.31
2022-08-03T03:20:35.819Z,101079.59
2022-08-03T03:23:05.214Z,101072.44
2022-08-03T03:25:33.514Z,101067.88
2022-08-03T03:28:02.110Z,101071.44
2022-08-03T03:30:30.430Z,101072.28
2022-08-03T03:32:59.014Z,101077.72
2022-08-03T03:35:27.795Z,101082.31
2022-08-03T03:37:55.689Z,101082.31
2022-08-03T03:40:23.086Z,101081.28
2022-08-03T03:42:50.978Z,101082.31
2022-08-03T03:45:19.344Z,101087.75
2022-08-03T03:47:46.686Z,101092.16
2022-08-03T03:50:15.816Z,101085.88
2022-08-03T03:52:43.203Z,101090.47
2022-08-03T03:55:10.586Z,101089.44
2022-08-03T03:57:37.954Z,101090.28
2022-08-03T04:00:06.351Z,101092.16
2022-08-03T04:02:33.682Z,101090.47
2022-08-03T04:05:19.550Z,101091.31
2022-08-03T04:08:27.644Z,101096.78
2022-08-03T04:11:21.187Z,101094.88
2022-08-03T04:13:56.795Z,101092.16
2022-08-03T04:16:31.538Z,101095.94
2022-08-03T04:19:10.585Z,101095.94
2022-08-03T04:21:42.686Z,101103.25
2022-08-03T04:24:11.850Z,101104.94
2022-08-03T04:26:41.763Z,101104.09
2022-08-03T04:29:13.843Z,101104.09
2022-08-03T04:31:42.643Z,101100.53
2022-08-03T04:34:10.274Z,101102.22
2022-08-03T04:36:44.918Z,101109.53
2022-08-03T04:39:25.313Z,101108.69
2022-08-03T04:42:07.848Z,101117.69
2022-08-03T04:44:40.486Z,101107.81
2022-08-03T04:47:08.659Z,101114.13
2022-08-03T04:49:40.193Z,101111.56
2022-08-03T04:52:08.699Z,101115.97
2022-08-03T04:54:45.892Z,101123.31
2022-08-03T04:57:22.683Z,101117.03
2022-08-03T05:00:02.606Z,101124.16
2022-08-03T05:02:32.204Z,101125.19
2022-08-03T05:04:59.733Z,101126.03
2022-08-03T05:07:36.265Z,101119.94
2022-08-03T05:10:14.817Z,101119.94
2022-08-03T05:12:43.564Z,101123.69
2022-08-03T05:15:11.076Z,101127.97
2022-08-03T05:17:38.405Z,101129.72
2022-08-03T05:20:06.279Z,101128.03
2022-08-03T05:22:33.665Z,101130.47
2022-08-03T05:25:02.358Z,101123.50
2022-08-03T05:27:29.773Z,101129.13
2022-08-03T05:29:57.077Z,101128.44
2022-08-03T05:32:44.353Z,101135.97
2022-08-03T05:35:57.994Z,101139.03
2022-08-03T05:37:59.055Z,101145.50
2022-08-03T05:40:26.835Z,101140.06
2022-08-03T05:42:54.236Z,101146.53
2022-08-03T05:45:24.308Z,101139.38
2022-08-03T05:47:55.532Z,101146.69
2022-08-03T05:50:38.768Z,101140.41
2022-08-03T05:53:10.024Z,101160.66
2022-08-03T05:55:37.411Z,101147.22
2022-08-03T05:58:04.840Z,101145.53
2022-08-03T06:00:32.237Z,101147.41
2022-08-03T06:02:59.567Z,101157.25
2022-08-03T06:05:28.257Z,101147.06
2022-08-03T06:07:55.588Z,101149.78
2022-08-03T06:10:36.753Z,101149.59
2022-08-03T06:13:05.253Z,101148.91
2022-08-03T06:15:33.441Z,101157.47
2022-08-03T06:18:02.169Z,101157.81
2022-08-03T06:20:30.282Z,101168.19
2022-08-03T06:23:01.065Z,101164.66
2022-08-03T06:25:29.011Z,101171.63
2022-08-03T06:27:56.781Z,101173.00
2022-08-03T06:30:24.138Z,101177.78
2022-08-03T06:32:51.892Z,101186.13
2022-08-03T06:35:20.120Z,101174.88
2022-08-03T06:37:50.188Z,101181.69
2022-08-03T06:40:21.865Z,101175.94
2022-08-03T06:42:51.892Z,101176.78
2022-08-03T06:45:19.340Z,101181.34
2022-08-03T06:47:46.619Z,101189.16
2022-08-03T06:50:17.490Z,101196.63
2022-08-03T06:52:45.842Z,101196.81
2022-08-03T06:55:13.237Z,101190.53
2022-08-03T06:57:40.616Z,101193.25
2022-08-03T07:00:12.440Z,101198.34
2022-08-03T07:02:42.526Z,101206.13
2022-08-03T07:05:10.622Z,101200.53
2022-08-03T07:07:38.219Z,101204.75
2022-08-03T07:10:06.906Z,101203.81
2022-08-03T07:12:34.616Z,101207.34
2022-08-03T07:15:03.477Z,101209.03
2022-08-03T07:17:32.855Z,101214.47
2022-08-03T07:20:01.347Z,101209.88
2022-08-03T07:22:28.719Z,101207.00
2022-08-03T07:24:56.821Z,101212.28
2022-08-03T07:27:27.069Z,101206.84
2022-08-03T07:29:55.329Z,101203.28
2022-08-03T07:32:22.910Z,101208.53
2022-08-03T07:34:50.561Z,101208.34
2022-08-03T07:37:17.893Z,101206.13
2022-08-03T07:39:46.150Z,101199.69
2022-08-03T07:42:13.927Z,101197.63
2022-08-03T07:44:42.729Z,101209.00
2022-08-03T07:47:10.095Z,101201.69
2022-08-03T07:49:49.910Z,101200.66
2022-08-03T07:52:35.803Z,101195.91
2022-08-03T07:55:04.009Z,101196.56
2022-08-03T07:57:31.415Z,101197.25
2022-08-03T08:00:02.432Z,101192.66
2022-08-03T08:02:40.312Z,101195.19
2022-08-03T08:05:08.280Z,101201.31
2022-08-03T08:07:55.294Z,101193.81
2022-08-03T08:10:22.848Z,101195.34
2022-08-03T08:12:50.429Z,101193.47
2022-08-03T08:15:17.891Z,101194.16
2022-08-03T08:17:51.054Z,101192.06
2022-08-03T08:20:27.973Z,101186.47
2022-08-03T08:23:03.557Z,101183.56
2022-08-03T08:25:39.538Z,101182.53
2022-08-03T08:28:32.448Z,101183.38
2022-08-03T08:31:01.713Z,101186.94
2022-08-03T08:33:42.176Z,101195.78
2022-08-03T08:36:15.827Z,101186.59
2022-08-03T08:38:45.079Z,101186.25
2022-08-03T08:41:14.260Z,101187.78
2022-08-03T08:43:42.209Z,101177.75
2022-08-03T08:46:23.118Z,101191.34
2022-08-03T08:48:52.779Z,101192.19
2022-08-03T08:51:21.546Z,101195.41
2022-08-03T08:53:52.609Z,101178.03
2022-08-03T08:56:22.257Z,101184.31
2022-08-03T08:58:53.187Z,101180.28
2022-08-03T09:01:21.748Z,101184.22
2022-08-03T09:03:49.434Z,101185.50
2022-08-03T09:06:17.027Z,101188.25
2022-08-03T09:08:44.457Z,101184.72
2022-08-03T09:11:12.315Z,101180.31
2022-08-03T09:13:39.979Z,101182.06
2022-08-03T09:16:19.113Z,101182.06
2022-08-03T09:18:50.497Z,101182.72
2022-08-03T09:21:33.221Z,101185.47
2022-08-03T09:24:05.218Z,101182.94
2022-08-03T09:26:35.205Z,101179.88
2022-08-03T09:29:14.388Z,101183.94
2022-08-03T09:31:46.937Z,101173.59
2022-08-03T09:34:16.740Z,101170.22
2022-08-03T09:36:49.389Z,101170.56
2022-08-03T09:39:18.269Z,101167.16
2022-08-03T09:42:05.697Z,101167.53
2022-08-03T09:44:37.890Z,101177.69
2022-08-03T09:47:10.008Z,101174.31
2022-08-03T09:49:38.728Z,101172.78
2022-08-03T09:52:31.977Z,101175.00
2022-08-03T09:56:30.695Z,101168.72
2022-08-03T09:58:10.242Z,101160.75
2022-08-03T10:01:07.708Z,101157.34
2022-08-03T10:04:04.137Z,101163.81
2022-08-03T10:06:32.199Z,101160.25
2022-08-03T10:09:10.780Z,101153.13
2022-08-03T10:11:42.104Z,101153.13
2022-08-03T10:14:19.026Z,101157.69
2022-08-03T10:16:47.784Z,101148.00
2022-08-03T10:19:15.811Z,101143.41
2022-08-03T10:21:50.708Z,101146.13
2022-08-03T10:24:24.495Z,101137.28
2022-08-03T10:26:53.648Z,101140.88
2022-08-03T10:29:28.429Z,101138.31
2022-08-03T10:31:59.551Z,101133.91
2022-08-03T10:34:34.039Z,101133.22
2022-08-03T10:37:08.373Z,101134.25
2022-08-03T10:39:36.329Z,101130.88
2022-08-03T10:42:05.686Z,101133.59
2022-08-03T10:44:42.696Z,101122.22
2022-08-03T10:47:11.214Z,101121.38
2022-08-03T10:49:39.077Z,101114.09
2022-08-03T10:52:13.317Z,101111.50
2022-08-03T10:55:12.802Z,101111.38
2022-08-03T10:57:58.455Z,101103.03
2022-08-03T11:00:28.501Z,101106.56
2022-08-03T11:03:14.644Z,101100.13
2022-08-03T11:05:48.250Z,101100.25
2022-08-03T11:08:20.305Z,101094.28
2022-08-03T11:10:49.042Z,101097.16
2022-08-03T11:13:19.555Z,101095.78
2022-08-03T11:15:49.144Z,101094.41
2022-08-03T11:18:16.942Z,101097.63
2022-08-03T11:20:44.170Z,101083.69
2022-08-03T11:23:11.833Z,101085.19
2022-08-03T11:26:10.129Z,101084.88
2022-08-03T11:28:41.267Z,101077.41
2022-08-03T11:31:48.103Z,101075.34
2022-08-03T11:34:14.399Z,101078.75
2022-08-03T11:37:20.794Z,101072.09
2022-08-03T11:39:50.934Z,101066.50
2022-08-03T11:42:24.179Z,101071.53
2022-08-03T11:44:52.698Z,101070.53
2022-08-03T11:47:24.476Z,101073.25
2022-08-03T11:49:55.331Z,101061.16
2022-08-03T11:52:27.089Z,101068.13
2022-08-03T11:54:56.866Z,101063.53
2022-08-03T11:58:58.058Z,101062.50
2022-08-03T12:00:28.660Z,101064.19
2022-08-03T12:03:02.191Z,101058.59
2022-08-03T12:05:38.435Z,101050.44
2022-08-03T12:08:07.447Z,101039.38
2022-08-03T12:10:35.371Z,101045.66
2022-08-03T12:14:44.123Z,101049.03
2022-08-03T12:15:55.626Z,101041.72
2022-08-03T12:18:24.439Z,101042.38
2022-08-03T12:20:54.329Z,101035.09
2022-08-03T12:23:21.721Z,101038.66
2022-08-03T12:26:06.895Z,101036.78
2022-08-03T12:28:37.628Z,101041.19
2022-08-03T12:31:07.883Z,101037.44
2022-08-03T12:33:59.139Z,101032.69
2022-08-03T12:36:28.023Z,101035.41
2022-08-03T12:39:05.295Z,101025.34
2022-08-03T12:41:38.530Z,101027.88
2022-08-03T12:44:07.865Z,101028.75
2022-08-03T12:46:37.597Z,101029.59
2022-08-03T12:49:06.324Z,101018.72
2022-08-03T12:51:53.865Z,101028.56
2022-08-03T12:54:24.404Z,101024.81
2022-08-03T12:57:08.614Z,101027.38
2022-08-03T12:59:52.614Z,101026.50
2022-08-03T13:02:23.496Z,101018.19
2022-08-03T13:04:52.886Z,101015.44
2022-08-03T13:07:20.795Z,101019.03
2022-08-03T13:09:51.135Z,101017.97
2022-08-03T13:12:26.610Z,101008.78
2022-08-03T13:14:58.620Z,101006.94
2022-08-03T13:17:26.702Z,101005.06
2022-08-03T13:19:54.651Z,101000.47
2022-08-03T13:22:24.039Z,101004.88
2022-08-03T13:25:00.373Z,101005.72
2022-08-03T13:28:12.470Z,100993.78
2022-08-03T13:30:28.247Z,100985.63
2022-08-03T13:32:58.710Z,100994.66
2022-08-03T13:35:26.219Z,100980.88
2022-08-03T13:37:53.534Z,100989.03
2022-08-03T13:40:23.607Z,100988.00
2022-08-03T13:42:57.805Z,100979.69
2022-08-03T13:45:25.365Z,100972.53
2022-08-03T13:47:52.690Z,100976.94
2022-08-03T13:50:19.995Z,100981.34
2022-08-03T13:52:47.507Z,100978.44
2022-08-03T13:55:14.792Z,100970.28
2022-08-03T13:58:02.973Z,100968.41
2022-08-03T14:00:30.029Z,100959.41
2022-08-03T14:03:05.383Z,100966.53
2022-08-03T14:05:38.755Z,100965.50
2022-08-03T14:08:07.373Z,100960.06
2022-08-03T14:10:36.652Z,100962.78
2022-08-03T14:13:05.002Z,100957.19
2022-08-03T14:15:38.104Z,100948.16
2022-08-03T14:18:12.694Z,100949.88
2022-08-03T14:20:50.059Z,100952.59
2022-08-03T14:23:36.961Z,100946.13
2022-08-03T14:26:08.640Z,100947.00
2022-08-03T14:28:36.560Z,100939.66
2022-08-03T14:31:04.655Z,100938.63
2022-08-03T14:33:35.920Z,100937.78
2022-08-03T14:36:03.506Z,100934.88
2022-08-03T14:38:31.139Z,100935.06
2022-08-03T14:40:58.468Z,100931.13
2022-08-03T14:43:25.841Z,100924.84
2022-08-03T14:46:01.873Z,100928.38
2022-08-03T14:50:30.177Z,100927.38
2022-08-03T14:51:16.454Z,100925.50
2022-08-03T14:53:43.779Z,100915.47
2022-08-03T14:56:11.164Z,100907.31
2022-08-03T14:58:38.607Z,100916.31
2022-08-03T15:02:02.856Z,100910.03
2022-08-03T15:03:54.714Z,100904.38
2022-08-03T15:06:22.014Z,100904.38
2022-08-03T15:09:20.862Z,100908.81
2022-08-03T15:11:37.159Z,100901.50
2022-08-03T15:14:09.006Z,100892.50
2022-08-03T15:16:37.940Z,100899.63
2022-08-03T15:20:00.773Z,100892.28
2022-08-03T15:21:52.948Z,100893.34
2022-08-03T15:24:20.827Z,100891.25
2022-08-03T15:26:48.166Z,100883.09
2022-08-03T15:30:07.794Z,100889.38
2022-08-03T15:32:07.295Z,100882.06
2022-08-03T15:34:36.420Z,100872.88
2022-08-03T15:37:05.242Z,100879.34
2022-08-03T15:39:58.967Z,100883.78
2022-08-03T15:42:35.140Z,100865.56
2022-08-03T15:45:02.457Z,100868.28
2022-08-03T15:47:29.767Z,100869.97
2022-08-03T15:49:57.135Z,100870.81
2022-08-03T15:52:24.499Z,100863.47
2022-08-03T15:54:51.831Z,100868.75
2022-08-03T15:57:19.737Z,100866.03
2022-08-03T15:59:47.716Z,100869.59
2022-08-03T16:02:15.292Z,100865.00
2022-08-03T16:04:42.605Z,100863.31
2022-08-03T16:07:12.722Z,100862.06
2022-08-03T16:09:42.279Z,100859.34
2022-08-03T16:12:11.857Z,100853.06
2022-08-03T16:14:53.379Z,100861.06
2022-08-03T16:17:22.264Z,100859.19
2022-08-03T16:19:52.154Z,100846.59
2022-08-03T16:22:26.270Z,100855.63
2022-08-03T16:24:54.384Z,100851.03
2022-08-03T16:27:37.379Z,100854.59
2022-08-03T16:30:12.217Z,100847.25
2022-08-03T16:32:39.917Z,100845.38
2022-08-03T16:35:07.941Z,100845.38
2022-08-03T16:37:38.745Z,100851.66
2022-08-03T16:40:17.234Z,100852.50
2022-08-03T16:42:47.641Z,100859.66
2022-08-03T16:45:14.959Z,100853.34
2022-08-03T16:47:42.229Z,100851.50
2022-08-03T16:50:15.922Z,100847.91
2022-08-03T16:52:48.361Z,100847.91
2022-08-03T16:55:42.922Z,100855.88
2022-08-03T16:58:04.587Z,100854.00
2022-08-03T17:00:41.746Z,100846.69
2022-08-03T17:03:12.543Z,100837.69
2022-08-03T17:05:49.816Z,100847.53
2022-08-03T17:08:26.204Z,100843.75
2022-08-03T17:10:56.141Z,100839.19
2022-08-03T17:13:38.910Z,100843.75
2022-08-03T17:16:09.411Z,100842.94
2022-08-03T17:18:49.498Z,100846.47
2022-08-03T17:21:20.205Z,100846.31
2022-08-03T17:23:53.419Z,100839.00
2022-08-03T17:26:23.293Z,100844.44
2022-08-03T17:29:11.359Z,100842.56
2022-08-03T17:31:48.881Z,100846.13
2022-08-03T17:34:20.290Z,100849.69
2022-08-03T17:37:05.166Z,100845.06
2022-08-03T17:39:58.800Z,100846.97
2022-08-03T17:42:29.490Z,100846.78
2022-08-03T17:45:06.589Z,100849.50
2022-08-03T17:47:42.405Z,100853.91
2022-08-03T17:50:25.154Z,100846.78
2022-08-03T17:53:23.587Z,100853.91
2022-08-03T17:56:04.369Z,100858.50
2022-08-03T17:59:08.190Z,100866.47
2022-08-03T18:02:10.528Z,100866.47
2022-08-03T18:05:00.666Z,100858.31
2022-08-03T18:07:41.090Z,100862.91
2022-08-03T18:10:11.359Z,100862.75
2022-08-03T18:13:01.597Z,100864.44
2022-08-03T18:15:42.551Z,100869.88
2022-08-03T18:18:12.574Z,100868.00
2022-08-03T18:20:42.140Z,100869.03
2022-08-03T18:26:12.296Z,100860.66
2022-08-03T18:28:40.830Z,100868.81
2022-08-03T18:31:12.998Z,100866.09
2022-08-03T18:34:19.721Z,100867.78
2022-08-03T18:36:50.426Z,100865.91
2022-08-03T18:39:19.645Z,100872.22
2022-08-03T18:41:47.132Z,100871.34
2022-08-03T18:44:53.249Z,100874.94
2022-08-03T18:47:16.559Z,100875.78
2022-08-03T18:50:04.578Z,100864.06
2022-08-03T18:52:54.643Z,100870.34
2022-08-03T18:55:33.096Z,100879.34
2022-08-03T18:58:03.726Z,100877.47
2022-08-03T19:00:53.824Z,100879.34
2022-08-03T19:03:42.779Z,100888.16
2022-08-03T19:06:23.660Z,100883.75
2022-08-03T19:09:05.030Z,100895.47
2022-08-03T19:12:11.279Z,100888.16
2022-08-03T19:14:35.523Z,100897.16
2022-08-03T19:17:11.302Z,100902.59
2022-08-03T19:19:43.995Z,100902.59
2022-08-03T19:22:15.944Z,100903.47
2022-08-03T19:24:46.076Z,100912.47
2022-08-03T19:27:14.241Z,100912.47
2022-08-03T19:29:58.678Z,100908.91
2022-08-03T19:32:29.606Z,100917.72
2022-08-03T19:34:59.383Z,100920.44
2022-08-03T19:37:37.983Z,100926.72
2022-08-03T19:40:10.782Z,100931.13
2022-08-03T19:42:45.516Z,100924.84
2022-08-03T19:45:21.661Z,100924.84
2022-08-03T19:47:53.708Z,100927.56
2022-08-03T19:50:21.001Z,100936.59
2022-08-03T19:52:50.041Z,100940.19
2022-08-03T19:55:18.130Z,100940.19
2022-08-03T19:57:49.169Z,100950.03
2022-08-03T20:00:26.125Z,100943.75
2022-08-03T20:02:54.334Z,100942.91
2022-08-03T20:05:21.878Z,100948.13
2022-08-03T20:07:50.066Z,100932.84
2022-08-03T20:10:18.074Z,100947.31
2022-08-03T20:12:46.929Z,100950.03
2022-08-03T20:15:18.047Z,100948.13
2022-08-03T20:17:56.950Z,100948.97
2022-08-03T20:20:32.141Z,100948.13
2022-08-03T20:23:06.799Z,100951.69
2022-08-03T20:25:48.482Z,100948.13
2022-08-03T20:31:12.390Z,100948.78
2022-08-03T20:33:48.372Z,100952.53
2022-08-03T20:36:18.239Z,100950.66
2022-08-03T20:38:48.212Z,100956.09
2022-08-03T20:41:17.317Z,100955.09
2022-08-03T20:43:45.678Z,100949.81
2022-08-03T20:46:29.474Z,100955.09
2022-08-03T20:49:04.392Z,100946.94
2022-08-03T20:51:50.502Z,100955.09
2022-08-03T20:54:30.964Z,100955.09
2022-08-03T20:57:03.612Z,100956.09
2022-08-03T20:59:50.800Z,100954.06
2022-08-03T21:02:29.835Z,100945.06
2022-08-03T21:05:03.248Z,100962.22
2022-08-03T21:08:05.061Z,100956.78
2022-08-03T21:10:38.415Z,100951.34
2022-08-03T21:12:57.899Z,100870.50
2022-08-03T21:13:06.982Z,100951.69
2022-08-03T21:13:17.844Z,100956.78
2022-08-03T21:16:03.334Z,100958.47
2022-08-03T21:18:42.038Z,100967.66
2022-08-03T21:21:13.907Z,100963.91
2022-08-03T21:23:49.090Z,100953.03
2022-08-03T21:26:22.085Z,100959.31
2022-08-03T21:28:50.744Z,100965.59
2022-08-03T21:31:24.463Z,100962.88
2022-08-03T21:33:57.562Z,100960.16
2022-08-03T21:36:26.828Z,100962.88
2022-08-03T21:38:56.183Z,100969.16
2022-08-03T21:41:25.203Z,100971.88
2022-08-03T21:43:52.318Z,100971.88
2022-08-03T21:46:20.207Z,100969.00
2022-08-03T21:48:53.518Z,100974.59
2022-08-03T21:51:23.803Z,100974.44
2022-08-03T21:54:04.405Z,100973.59
2022-08-03T21:56:41.885Z,100985.31
2022-08-03T21:59:14.864Z,100983.63
2022-08-03T22:01:42.474Z,100978.84
2022-08-03T22:04:12.031Z,100984.28
2022-08-03T22:06:58.081Z,100981.56
2022-08-03T22:09:25.360Z,100987.00
2022-08-03T22:11:54.249Z,100984.28
2022-08-03T22:14:21.699Z,100988.88
2022-08-03T22:16:49.191Z,100993.28
2022-08-03T22:19:16.311Z,100992.25
2022-08-03T22:21:47.016Z,100996.84
2022-08-03T22:24:15.800Z,101001.47
2022-08-03T22:27:03.899Z,101004.03
2022-08-03T22:29:32.741Z,101011.31
2022-08-03T22:32:00.311Z,101008.59
2022-08-03T22:34:28.454Z,101014.03
2022-08-03T22:37:00.829Z,101018.50
2022-08-03T22:39:29.049Z,101020.38
2022-08-03T22:41:59.485Z,101023.09
2022-08-03T22:44:27.114Z,101018.50
2022-08-03T22:46:54.440Z,101019.34
2022-08-03T22:49:22.195Z,101023.94
2022-08-03T22:51:50.662Z,101019.34
2022-08-03T22:54:17.673Z,101020.38
2022-08-03T22:56:46.603Z,101023.09
2022-08-03T22:59:39.990Z,101023.94
2022-08-03T23:02:02.033Z,101027.50
2022-08-03T23:04:43.930Z,101024.78
2022-08-03T23:07:15.026Z,101029.19
2022-08-03T23:09:44.787Z,101031.06
2022-08-03T23:12:14.387Z,101031.06
2022-08-03T23:14:44.121Z,101027.50
2022-08-03T23:17:11.777Z,101030.25
2022-08-03T23:19:44.849Z,101035.47
2022-08-03T23:22:25.368Z,101033.81
2022-08-03T23:24:58.390Z,101029.19
2022-08-03T23:27:27.123Z,101041.97
2022-08-03T23:29:54.485Z,101038.22
2022-08-03T23:32:21.597Z,101039.88
2022-08-03T23:35:07.198Z,101040.94
2022-08-03T23:37:34.749Z,101040.94
2022-08-03T23:40:24.269Z,101035.47
2022-08-03T23:42:52.037Z,101037.16
2022-08-03T23:45:19.807Z,101039.03
2022-08-03T23:47:47.748Z,101034.44
2022-08-03T23:50:15.324Z,101036.16
2022-08-03T23:52:45.395Z,101033.59
2022-08-03T23:55:15.484Z,101029.00
2022-08-03T23:58:01.350Z,101029.00
